Terminal Aerodrome Forecast
Issued by NWS Wichita, KS

Home | Current Version | Previous Version | Text Only | Print | Product List | Glossary Off
Versions: 1 2 3 4 5 6 7 8 9 10 11 12 13 14 15 16 17

304
FTUS43 KICT 230522
TAFICT
TAF
KICT 230522Z 2306/2406 16008KT P6SM BKN200
     FM230800 24010KT P6SM VCTS SCT080CB BKN150
     FM231000 01016G24KT P6SM VCSH BKN040
     FM231700 01017G25KT P6SM SCT150
     FM240100 36008KT P6SM SCT200=

USA.gov is the U.S. government's official web portal to all federal, state and local government web resources and services.